createdAt,value
2023-01-06T00:00:25.269Z,6.30
2023-01-06T00:04:27.806Z,6.20
2023-01-06T00:08:29.733Z,6.40
2023-01-06T00:12:31.673Z,6.30
2023-01-06T00:16:33.408Z,6.30
2023-01-06T00:20:35.127Z,6.00
2023-01-06T00:24:36.968Z,6.10
2023-01-06T00:28:39.013Z,6.10
2023-01-06T00:32:40.742Z,6.20
2023-01-06T00:36:42.538Z,6.30
2023-01-06T00:40:44.667Z,6.30
2023-01-06T00:44:46.451Z,5.70
2023-01-06T00:49:03.952Z,5.50
2023-01-06T00:53:08.412Z,5.40
2023-01-06T00:57:10.923Z,5.60
2023-01-06T01:01:13.035Z,5.40
2023-01-06T01:05:15.149Z,5.70
2023-01-06T01:09:29.517Z,5.70
2023-01-06T01:13:31.301Z,5.80
2023-01-06T01:17:33.280Z,5.70
2023-01-06T01:21:35.334Z,5.60
2023-01-06T01:25:37.139Z,5.70
2023-01-06T01:29:39.042Z,5.70
2023-01-06T01:33:40.843Z,5.70
2023-01-06T01:37:42.597Z,5.70
2023-01-06T01:41:45.144Z,5.70
2023-01-06T01:45:50.056Z,5.70
2023-01-06T01:49:55.531Z,5.90
2023-01-06T01:54:00.832Z,6.00
2023-01-06T01:58:24.142Z,6.00
2023-01-06T02:02:29.080Z,5.70
2023-01-06T02:06:31.532Z,5.60
2023-01-06T02:10:33.545Z,5.80
2023-01-06T02:14:35.400Z,6.20
2023-01-06T02:18:43.787Z,6.10
2023-01-06T02:23:23.311Z,6.10
2023-01-06T02:27:33.249Z,6.10
2023-01-06T02:31:53.245Z,6.20
2023-01-06T02:35:58.503Z,6.20
2023-01-06T02:40:15.952Z,6.20
2023-01-06T02:44:21.127Z,6.30
2023-01-06T02:48:44.498Z,6.20
2023-01-06T02:53:08.193Z,6.30
2023-01-06T02:57:13.998Z,6.10
2023-01-06T03:01:22.657Z,5.50
2023-01-06T03:05:27.506Z,5.70
2023-01-06T03:09:34.472Z,6.00
2023-01-06T03:14:01.117Z,6.10
2023-01-06T03:18:03.515Z,6.10
2023-01-06T03:22:08.042Z,6.00
2023-01-06T03:26:11.118Z,6.20
2023-01-06T03:30:14.183Z,6.30
2023-01-06T03:34:49.327Z,6.40
2023-01-06T03:39:07.768Z,6.20
2023-01-06T03:43:34.627Z,6.20
2023-01-06T03:48:10.537Z,6.20
2023-01-06T03:52:22.551Z,6.20
2023-01-06T03:56:39.410Z,6.40
2023-01-06T04:00:41.954Z,6.40
2023-01-06T04:04:44.836Z,6.40
2023-01-06T04:08:47.587Z,6.40
2023-01-06T04:12:50.107Z,6.40
2023-01-06T04:16:55.791Z,6.50
2023-01-06T04:20:58.270Z,6.60
2023-01-06T04:25:04.317Z,6.50
2023-01-06T04:29:06.302Z,6.50
2023-01-06T04:33:08.929Z,6.50
2023-01-06T04:37:12.128Z,6.60
2023-01-06T04:41:14.032Z,6.10
2023-01-06T04:45:15.961Z,6.20
2023-01-06T04:49:17.793Z,6.40
2023-01-06T04:53:19.539Z,6.40
2023-01-06T04:57:21.273Z,6.40
2023-01-06T05:01:24.066Z,6.20
2023-01-06T05:05:25.870Z,6.20
2023-01-06T05:09:27.614Z,6.20
2023-01-06T05:13:31.320Z,6.10
2023-01-06T05:17:33.094Z,6.00
2023-01-06T05:21:34.817Z,5.90
2023-01-06T05:25:36.533Z,5.80
2023-01-06T05:29:39.017Z,5.70
2023-01-06T05:33:41.011Z,5.70
2023-01-06T05:37:42.907Z,5.70
2023-01-06T05:41:44.794Z,5.50
2023-01-06T05:45:46.835Z,5.50
2023-01-06T05:49:48.584Z,5.50
2023-01-06T05:53:50.330Z,5.40
2023-01-06T05:57:52.129Z,5.50
2023-01-06T06:01:53.905Z,5.60
2023-01-06T06:05:55.763Z,5.70
2023-01-06T06:09:57.590Z,5.90
2023-01-06T06:13:59.365Z,5.80
2023-01-06T06:18:04.388Z,6.00
2023-01-06T06:22:06.163Z,5.70
2023-01-06T06:26:09.442Z,5.50
2023-01-06T06:30:11.563Z,5.60
2023-01-06T06:34:13.899Z,5.80
2023-01-06T06:38:15.819Z,5.70
2023-01-06T06:42:17.662Z,5.60
2023-01-06T06:46:20.071Z,5.90
2023-01-06T06:50:22.028Z,6.10
2023-01-06T06:54:23.875Z,5.80
2023-01-06T06:58:26.124Z,5.90
2023-01-06T07:02:27.860Z,6.10
2023-01-06T07:06:29.696Z,6.30
2023-01-06T07:10:31.571Z,6.30
2023-01-06T07:14:33.510Z,5.80
2023-01-06T07:18:35.476Z,6.00
2023-01-06T07:22:39.068Z,5.60
2023-01-06T07:26:40.856Z,5.80
2023-01-06T07:30:42.578Z,6.20
2023-01-06T07:34:44.392Z,6.30
2023-01-06T07:38:46.290Z,5.90
2023-01-06T07:42:48.514Z,5.90
2023-01-06T07:46:51.352Z,5.90
2023-01-06T07:50:53.269Z,5.40
2023-01-06T07:54:59.306Z,5.70
2023-01-06T07:59:01.158Z,5.80
2023-01-06T08:03:05.740Z,6.00
2023-01-06T08:07:07.571Z,5.60
2023-01-06T08:11:12.622Z,5.60
2023-01-06T08:15:14.450Z,5.80
2023-01-06T08:19:16.379Z,6.20
2023-01-06T08:23:18.378Z,5.70
2023-01-06T08:27:20.655Z,5.80
2023-01-06T08:31:23.989Z,5.60
2023-01-06T08:35:26.474Z,5.30
2023-01-06T08:39:28.300Z,5.70
2023-01-06T08:43:30.099Z,6.10
2023-01-06T08:47:31.826Z,6.20
2023-01-06T08:51:34.848Z,6.40
2023-01-06T08:55:40.770Z,6.70
2023-01-06T08:59:42.873Z,6.80
2023-01-06T09:03:44.737Z,6.80
2023-01-06T09:07:46.575Z,6.80
2023-01-06T09:11:48.444Z,6.80
2023-01-06T09:15:52.336Z,6.90
2023-01-06T09:19:54.249Z,6.80
2023-01-06T09:23:56.065Z,6.80
2023-01-06T09:27:59.145Z,7.00
2023-01-06T09:32:00.975Z,7.20
2023-01-06T09:36:03.409Z,7.10
2023-01-06T09:40:06.043Z,7.10
2023-01-06T09:44:11.648Z,7.30
2023-01-06T09:48:21.310Z,7.50
2023-01-06T09:52:43.938Z,7.40
2023-01-06T09:56:51.040Z,7.50
2023-01-06T10:00:55.730Z,7.60
2023-01-06T10:04:57.537Z,7.60
2023-01-06T10:09:25.479Z,7.70
2023-01-06T10:13:46.249Z,7.60
2023-01-06T10:17:57.068Z,7.60
2023-01-06T10:22:17.132Z,7.70
2023-01-06T10:26:29.166Z,7.40
2023-01-06T10:30:50.507Z,7.80
2023-01-06T10:34:52.574Z,7.50
2023-01-06T10:38:55.225Z,7.90
2023-01-06T10:43:06.752Z,7.90
2023-01-06T10:47:16.045Z,7.70
2023-01-06T10:51:35.109Z,7.00
2023-01-06T10:55:55.313Z,7.20
2023-01-06T11:00:09.487Z,6.90
2023-01-06T11:04:13.087Z,6.90
2023-01-06T11:08:17.002Z,7.20
2023-01-06T11:12:23.458Z,7.20
2023-01-06T11:16:26.423Z,6.90
2023-01-06T11:20:33.876Z,7.10
2023-01-06T11:24:50.125Z,6.60
2023-01-06T11:28:55.616Z,7.10
2023-01-06T11:32:57.491Z,7.50
2023-01-06T11:36:59.941Z,7.90
2023-01-06T11:41:09.766Z,7.90
2023-01-06T11:45:33.165Z,8.30
2023-01-06T11:49:43.615Z,8.40
2023-01-06T11:53:56.580Z,8.40
2023-01-06T11:58:08.735Z,8.70
2023-01-06T12:02:22.873Z,8.60
2023-01-06T12:06:38.048Z,8.60
2023-01-06T12:10:43.340Z,8.60
2023-01-06T12:14:46.495Z,8.50
2023-01-06T12:18:48.525Z,8.40
2023-01-06T12:23:20.490Z,8.60
2023-01-06T12:27:37.391Z,8.70
2023-01-06T12:31:57.858Z,8.90
2023-01-06T12:36:05.775Z,8.90
2023-01-06T12:40:57.979Z,8.60
2023-01-06T12:45:21.666Z,8.80
2023-01-06T12:49:33.431Z,9.00
2023-01-06T12:53:44.039Z,8.60
2023-01-06T12:58:01.250Z,8.80
2023-01-06T13:02:21.810Z,8.60
2023-01-06T13:06:37.880Z,8.80
2023-01-06T13:10:42.946Z,8.70
2023-01-06T13:15:05.818Z,8.80
2023-01-06T13:19:30.104Z,9.00
2023-01-06T13:23:49.773Z,9.10
2023-01-06T13:27:51.623Z,9.00
2023-01-06T13:31:59.302Z,9.10
2023-01-06T13:36:23.575Z,9.40
2023-01-06T13:40:29.605Z,9.40
2023-01-06T13:44:35.229Z,9.00
2023-01-06T13:48:41.888Z,9.00
2023-01-06T13:52:44.327Z,9.00
2023-01-06T13:56:46.072Z,9.20
2023-01-06T14:01:07.452Z,9.10
2023-01-06T14:05:22.536Z,9.30
2023-01-06T14:09:24.724Z,9.30
2023-01-06T14:13:36.606Z,9.40
2023-01-06T14:17:41.555Z,9.40
2023-01-06T14:21:44.060Z,9.30
2023-01-06T14:25:50.847Z,9.30
2023-01-06T14:30:05.064Z,9.30
2023-01-06T14:34:10.935Z,9.40
2023-01-06T14:38:18.319Z,9.50
2023-01-06T14:42:29.997Z,9.50
2023-01-06T14:46:54.003Z,9.50
2023-01-06T14:50:58.827Z,9.50
2023-01-06T14:55:04.206Z,9.60
2023-01-06T14:59:15.843Z,9.50
2023-01-06T15:03:22.835Z,9.40
2023-01-06T15:07:24.724Z,9.40
2023-01-06T15:11:31.356Z,9.40
2023-01-06T15:15:34.129Z,9.30
2023-01-06T15:19:36.512Z,9.40
2023-01-06T15:23:43.887Z,9.40
2023-01-06T15:27:48.322Z,9.30
2023-01-06T15:31:53.412Z,9.20
2023-01-06T15:35:55.673Z,9.10
2023-01-06T15:39:58.008Z,9.20
2023-01-06T15:44:01.475Z,9.10
2023-01-06T15:48:12.113Z,8.70
2023-01-06T15:52:25.179Z,9.00
2023-01-06T15:56:29.924Z,9.10
2023-01-06T16:00:36.442Z,9.00
2023-01-06T16:04:44.032Z,9.10
2023-01-06T16:08:47.249Z,8.70
2023-01-06T16:13:23.931Z,9.00
2023-01-06T16:17:33.523Z,8.90
2023-01-06T16:21:35.606Z,9.00
2023-01-06T16:25:37.360Z,9.10
2023-01-06T16:29:39.185Z,9.20
2023-01-06T16:33:45.789Z,9.30
2023-01-06T16:37:47.895Z,9.30
2023-01-06T16:42:01.537Z,9.30
2023-01-06T16:46:19.673Z,9.40
2023-01-06T16:50:27.993Z,9.30
2023-01-06T16:54:30.508Z,9.30
2023-01-06T16:58:35.470Z,9.30
2023-01-06T17:02:37.322Z,9.30
2023-01-06T17:06:40.475Z,9.30
2023-01-06T17:10:43.145Z,9.20
2023-01-06T17:14:45.049Z,9.20
2023-01-06T17:19:26.750Z,9.10
2023-01-06T17:23:29.166Z,9.10
2023-01-06T17:27:31.048Z,9.10
2023-01-06T17:31:39.951Z,9.10
2023-01-06T17:35:45.617Z,9.00
2023-01-06T17:39:47.733Z,9.10
2023-01-06T17:43:49.655Z,9.00
2023-01-06T17:47:52.746Z,9.00
2023-01-06T17:51:54.845Z,8.90
2023-01-06T17:55:57.657Z,8.60
2023-01-06T17:59:59.385Z,8.50
2023-01-06T18:04:06.434Z,8.60
2023-01-06T18:08:08.199Z,8.60
2023-01-06T18:12:14.339Z,8.70
2023-01-06T18:16:28.323Z,8.70
2023-01-06T18:20:31.288Z,8.80
2023-01-06T18:24:37.690Z,8.80
2023-01-06T18:28:39.485Z,8.60
2023-01-06T18:32:43.235Z,8.50
2023-01-06T18:36:45.564Z,8.50
2023-01-06T18:40:47.596Z,8.50
2023-01-06T18:44:51.039Z,8.50
2023-01-06T18:48:55.069Z,8.70
2023-01-06T18:53:07.369Z,8.40
2023-01-06T18:57:29.766Z,8.40
2023-01-06T19:01:47.354Z,8.40
2023-01-06T19:05:49.211Z,8.10
2023-01-06T19:09:51.028Z,8.20
2023-01-06T19:14:05.826Z,8.30
2023-01-06T19:18:14.542Z,8.20
2023-01-06T19:22:25.922Z,8.20
2023-01-06T19:26:38.206Z,8.30
2023-01-06T19:30:42.608Z,8.20
2023-01-06T19:34:44.539Z,8.20
2023-01-06T19:38:46.417Z,8.50
2023-01-06T19:42:49.031Z,8.40
2023-01-06T19:46:50.891Z,8.30
2023-01-06T19:51:33.766Z,8.30
2023-01-06T19:55:35.941Z,8.00
2023-01-06T19:59:37.944Z,8.10
2023-01-06T20:03:44.708Z,8.00
2023-01-06T20:07:46.688Z,8.10
2023-01-06T20:11:50.451Z,8.20
2023-01-06T20:15:52.342Z,8.20
2023-01-06T20:19:54.306Z,8.10
2023-01-06T20:23:56.875Z,8.20
2023-01-06T20:27:58.855Z,8.30
2023-01-06T20:32:00.868Z,8.40
2023-01-06T20:36:02.878Z,7.90
2023-01-06T20:40:05.646Z,8.10
2023-01-06T20:44:07.749Z,8.00
2023-01-06T20:48:09.620Z,8.10
2023-01-06T20:52:11.444Z,8.20
2023-01-06T20:56:13.291Z,8.10
2023-01-06T21:00:15.565Z,8.20
2023-01-06T21:04:17.519Z,8.30
2023-01-06T21:08:19.536Z,8.20
2023-01-06T21:12:21.396Z,8.30
2023-01-06T21:16:23.319Z,8.30
2023-01-06T21:20:25.247Z,8.30
2023-01-06T21:24:27.168Z,8.30
2023-01-06T21:28:29.047Z,8.30
2023-01-06T21:32:30.974Z,8.30
2023-01-06T21:36:32.813Z,8.10
2023-01-06T21:40:34.735Z,8.20
2023-01-06T21:44:36.746Z,8.10
2023-01-06T21:48:38.677Z,8.00
2023-01-06T21:52:40.651Z,8.10
2023-01-06T21:56:42.625Z,8.00
2023-01-06T22:00:44.527Z,7.80
2023-01-06T22:04:46.438Z,7.90
2023-01-06T22:08:51.296Z,8.10
2023-01-06T22:12:56.369Z,8.30
2023-01-06T22:17:00.501Z,8.20
2023-01-06T22:21:03.700Z,8.30
2023-01-06T22:25:06.314Z,8.30
2023-01-06T22:29:08.330Z,8.30
2023-01-06T22:33:10.160Z,8.30
2023-01-06T22:37:12.089Z,8.20
2023-01-06T22:41:13.979Z,8.30
2023-01-06T22:45:15.948Z,8.30
2023-01-06T22:49:17.805Z,8.20
2023-01-06T22:53:19.689Z,8.20
2023-01-06T22:57:21.488Z,8.30
2023-01-06T23:01:23.810Z,8.30
2023-01-06T23:05:25.804Z,8.40
2023-01-06T23:09:27.683Z,8.40
2023-01-06T23:13:29.998Z,8.30
2023-01-06T23:17:32.046Z,8.30
2023-01-06T23:21:35.146Z,8.30
2023-01-06T23:25:36.894Z,8.40
2023-01-06T23:29:38.851Z,8.40
2023-01-06T23:33:45.895Z,8.30
2023-01-06T23:37:47.815Z,8.40
2023-01-06T23:41:49.879Z,8.40
2023-01-06T23:45:51.758Z,8.40
2023-01-06T23:49:53.608Z,8.40
2023-01-06T23:53:55.527Z,8.30
2023-01-06T23:57:57.469Z,8.30
